Time;durP1;ratioP1;P1;durP2;ratioP2;P2;SDS_P1;SDS_P2;PMS_P1;PMS_P2;Temp;Humidity;BMP_temperature;BMP_pressure;BME280_temperature;BME280_humidity;BME280_pressure;Samples;Min_cycle;Max_cycle;Signal;HPM_P1;HPM_P2
2023/09/25 00:00:49;;;;;;;5.70;1.85;;;;;;;15.65;100.00;100302.19;5053031;28;20021;-89
2023/09/25 00:03:15;;;;;;;10.05;2.10;;;;;;;15.69;100.00;100307.03;5053145;28;20029;-89
2023/09/25 00:05:41;;;;;;;10.45;1.98;;;;;;;15.68;100.00;100307.97;5053081;28;20025;-88
2023/09/25 00:08:07;;;;;;;8.90;2.10;;;;;;;15.62;100.00;100309.28;5035212;28;20036;-88
2023/09/25 00:10:32;;;;;;;7.13;1.85;;;;;;;15.61;100.00;100304.22;5052992;28;20055;-89
2023/09/25 00:12:59;;;;;;;8.00;1.73;;;;;;;15.60;100.00;100307.75;5052910;28;20017;-88
2023/09/25 00:15:25;;;;;;;11.40;1.92;;;;;;;15.54;100.00;100318.66;5052833;28;20454;-89
2023/09/25 00:17:50;;;;;;;8.82;1.95;;;;;;;15.53;100.00;100296.19;5052636;28;20039;-88
2023/09/25 00:20:19;;;;;;;7.22;1.70;;;;;;;15.47;100.00;100313.13;5034779;28;20035;-89
2023/09/25 00:22:45;;;;;;;8.32;2.00;;;;;;;15.50;100.00;100320.66;5052989;28;20387;-89
2023/09/25 00:25:11;;;;;;;10.57;1.95;;;;;;;15.39;100.00;100320.72;5052557;28;20036;-89
2023/09/25 00:27:36;;;;;;;9.07;1.38;;;;;;;15.38;100.00;100329.44;5052658;28;20434;-88
2023/09/25 00:30:05;;;;;;;4.13;1.00;;;;;;;15.43;100.00;100331.69;5052600;28;20540;-89
2023/09/25 00:32:31;;;;;;;3.08;1.20;;;;;;;15.34;100.00;100328.06;5052449;28;20461;-89
2023/09/25 00:34:56;;;;;;;6.50;1.55;;;;;;;15.26;100.00;100340.81;5052377;28;20017;-88
2023/09/25 00:37:21;;;;;;;6.70;1.63;;;;;;;15.19;100.00;100337.88;5052382;28;20021;-89
2023/09/25 00:39:47;;;;;;;3.67;1.30;;;;;;;15.16;100.00;100345.91;5052510;28;20024;-89
2023/09/25 00:42:13;;;;;;;4.45;1.75;;;;;;;15.12;100.00;100350.53;5052378;28;20017;-89
2023/09/25 00:44:38;;;;;;;6.80;1.30;;;;;;;15.12;100.00;100344.53;5052260;28;20108;-89
2023/09/25 00:47:08;;;;;;;8.00;1.67;;;;;;;15.16;100.00;100357.13;5052255;28;20044;-89
2023/09/25 00:49:35;;;;;;;5.93;1.35;;;;;;;15.22;100.00;100360.22;5051570;28;20513;-89
2023/09/25 00:52:01;;;;;;;9.13;1.73;;;;;;;15.17;100.00;100364.00;5052090;28;20055;-89
2023/09/25 00:54:27;;;;;;;6.57;1.50;;;;;;;15.36;100.00;100352.16;5052284;28;20525;-89
2023/09/25 00:56:53;;;;;;;6.72;1.05;;;;;;;15.27;100.00;100368.50;5052023;28;20029;-89
2023/09/25 00:59:20;;;;;;;6.55;1.55;;;;;;;15.15;100.00;100370.28;5052012;28;20032;-89
2023/09/25 01:01:45;;;;;;;4.07;1.10;;;;;;;15.11;100.00;100366.25;5051865;28;20107;-88
2023/09/25 01:04:10;;;;;;;4.38;1.00;;;;;;;15.05;100.00;100369.34;5051788;28;20120;-89
2023/09/25 01:06:36;;;;;;;5.05;1.20;;;;;;;15.12;100.00;100371.34;5051950;28;20114;-89
2023/09/25 01:09:03;;;;;;;7.15;0.98;;;;;;;15.09;100.00;100374.16;5052223;28;20068;-89
2023/09/25 01:11:28;;;;;;;6.82;1.77;;;;;;;15.02;100.00;100380.81;5051687;28;20104;-89
2023/09/25 01:13:53;;;;;;;8.10;1.52;;;;;;;14.94;100.00;100378.75;5052158;28;20551;-89
2023/09/25 01:16:20;;;;;;;4.32;1.20;;;;;;;14.95;100.00;100390.84;5051976;28;20410;-89
2023/09/25 01:18:47;;;;;;;11.93;2.13;;;;;;;14.85;100.00;100383.84;5051928;28;20487;-89
2023/09/25 01:21:12;;;;;;;5.80;1.25;;;;;;;14.84;100.00;100388.22;5051957;28;20386;-89
2023/09/25 01:23:37;;;;;;;9.52;1.90;;;;;;;14.84;100.00;100397.78;5051627;28;20108;-89
2023/09/25 01:26:04;;;;;;;4.55;1.30;;;;;;;14.77;100.00;100398.25;5051432;28;20383;-88
2023/09/25 01:28:30;;;;;;;5.43;1.45;;;;;;;14.72;100.00;100399.53;5051718;28;20059;-88
2023/09/25 01:30:55;;;;;;;4.00;1.33;;;;;;;14.63;100.00;100402.81;5051864;28;20052;-89
2023/09/25 01:33:21;;;;;;;6.03;1.40;;;;;;;14.60;100.00;100413.44;5051557;28;20024;-88
2023/09/25 01:35:46;;;;;;;7.63;1.50;;;;;;;14.70;100.00;100407.47;5051644;28;20028;-89
2023/09/25 01:38:12;;;;;;;8.50;1.70;;;;;;;14.66;100.00;100408.63;5051766;28;20059;-88
2023/09/25 01:40:37;;;;;;;10.07;1.67;;;;;;;14.67;100.00;100412.06;5051474;28;20025;-89
2023/09/25 01:43:03;;;;;;;6.47;1.40;;;;;;;14.68;100.00;100418.88;5051470;28;20029;-88
2023/09/25 01:45:28;;;;;;;8.63;1.95;;;;;;;14.62;100.00;100425.38;5051474;28;20029;-88
2023/09/25 01:47:53;;;;;;;6.70;2.00;;;;;;;14.51;100.00;100423.56;5051612;28;20018;-89
2023/09/25 01:50:27;;;;;;;7.03;1.80;;;;;;;14.43;100.00;100425.88;5051763;28;20463;-88
2023/09/25 01:52:55;;;;;;;6.65;1.88;;;;;;;14.53;100.00;100426.91;5051318;28;20024;-88
2023/09/25 01:55:21;;;;;;;6.43;2.03;;;;;;;14.40;100.00;100431.31;5051705;28;20471;-89
2023/09/25 01:57:46;;;;;;;5.50;1.42;;;;;;;14.31;100.00;100427.63;5051461;28;20036;-88
2023/09/25 02:00:12;;;;;;;5.78;1.80;;;;;;;14.28;100.00;100432.22;5051505;28;20107;-88
2023/09/25 02:02:38;;;;;;;7.03;1.63;;;;;;;14.25;100.00;100435.03;5054901;28;20025;-88
2023/09/25 02:05:05;;;;;;;6.93;2.10;;;;;;;14.21;100.00;100437.00;5055345;28;20029;-89
2023/09/25 02:07:30;;;;;;;7.03;2.00;;;;;;;14.17;100.00;100434.75;5055338;28;20021;-89
2023/09/25 02:09:56;;;;;;;16.73;2.83;;;;;;;14.20;100.00;100442.31;5055253;28;20025;-88
2023/09/25 02:12:21;;;;;;;8.77;2.53;;;;;;;14.12;100.00;100441.13;5055017;28;20036;-89
2023/09/25 02:14:49;;;;;;;9.88;1.60;;;;;;;14.09;100.00;100453.47;5055339;28;20033;-88
2023/09/25 02:17:14;;;;;;;5.22;1.83;;;;;;;14.03;100.00;100454.75;5055489;28;20033;-89
2023/09/25 02:19:39;;;;;;;10.63;2.47;;;;;;;14.04;100.00;100456.38;5055088;28;20079;-89
2023/09/25 02:22:06;;;;;;;6.22;1.63;;;;;;;13.95;100.00;100462.25;5055010;28;20029;-89
2023/09/25 02:24:34;;;;;;;12.70;2.40;;;;;;;13.87;100.00;100460.19;5036829;28;20506;-88
2023/09/25 02:26:59;;;;;;;5.45;1.63;;;;;;;13.88;100.00;100455.84;5055048;28;20029;-89
2023/09/25 02:29:25;;;;;;;6.40;1.20;;;;;;;13.81;100.00;100463.22;5054791;28;20028;-89
2023/09/25 02:31:50;;;;;;;7.43;1.52;;;;;;;13.74;100.00;100471.56;5053276;28;20025;-88
2023/09/25 02:34:16;;;;;;;7.07;1.48;;;;;;;13.69;100.00;100467.50;5054548;28;20108;-88
2023/09/25 02:36:42;;;;;;;12.10;2.30;;;;;;;13.66;100.00;100467.72;5054719;28;20108;-88
2023/09/25 02:39:08;;;;;;;10.30;2.50;;;;;;;13.64;100.00;100464.41;5054628;28;20471;-87
2023/09/25 02:41:33;;;;;;;10.20;1.98;;;;;;;13.60;100.00;100465.56;5054622;28;20480;-88
2023/09/25 02:43:59;;;;;;;7.38;2.20;;;;;;;13.57;100.00;100467.53;5054583;28;20035;-88
2023/09/25 02:46:24;;;;;;;12.40;2.95;;;;;;;13.67;100.00;100461.59;5054528;28;20111;-88
2023/09/25 02:48:49;;;;;;;13.73;1.67;;;;;;;13.64;100.00;100459.22;5054531;28;20068;-88
2023/09/25 02:51:15;;;;;;;14.00;2.40;;;;;;;13.51;100.00;100458.44;5054445;28;20057;-88
2023/09/25 02:53:40;;;;;;;11.27;2.78;;;;;;;13.59;100.00;100458.72;5054343;28;20100;-88
2023/09/25 02:56:05;;;;;;;14.60;2.58;;;;;;;13.56;100.00;100461.53;5036586;28;20467;-88
2023/09/25 02:58:31;;;;;;;13.80;2.50;;;;;;;13.75;100.00;100455.03;5054193;28;20394;-87
2023/09/25 03:00:58;;;;;;;13.55;2.30;;;;;;;13.70;100.00;100457.94;5054335;28;20021;-87
2023/09/25 03:03:24;;;;;;;13.73;2.83;;;;;;;13.59;100.00;100455.31;5054399;28;20071;-88
2023/09/25 03:05:49;;;;;;;14.43;3.78;;;;;;;13.44;100.00;100462.38;5054056;28;20037;-87
2023/09/25 03:08:15;;;;;;;14.82;3.05;;;;;;;13.57;100.00;100462.34;5054155;28;20064;-87
2023/09/25 03:10:40;;;;;;;13.75;2.45;;;;;;;13.39;100.00;100465.28;5036259;28;20356;-87
2023/09/25 03:13:05;;;;;;;13.68;3.38;;;;;;;13.47;100.00;100459.56;5053542;28;20061;-87
2023/09/25 03:15:31;;;;;;;11.90;2.63;;;;;;;13.40;100.00;100468.72;5054034;28;20395;-87
2023/09/25 03:17:56;;;;;;;20.55;3.47;;;;;;;13.22;100.00;100463.81;5036130;28;20013;-88
2023/09/25 03:20:23;;;;;;;18.13;3.10;;;;;;;13.24;100.00;100476.66;5053743;28;20029;-88
2023/09/25 03:22:49;;;;;;;21.27;3.40;;;;;;;13.23;100.00;100475.00;5053807;28;20048;-87
2023/09/25 03:25:14;;;;;;;18.30;3.15;;;;;;;13.22;100.00;100484.56;5035852;28;20041;-88
2023/09/25 03:27:40;;;;;;;20.60;3.25;;;;;;;13.28;100.00;100489.34;5053774;28;20028;-87
2023/09/25 03:30:06;;;;;;;15.93;3.45;;;;;;;13.40;100.00;100489.44;5035661;28;20104;-87
2023/09/25 03:32:32;;;;;;;12.25;2.70;;;;;;;13.18;100.00;100490.88;5053500;28;20032;-88
2023/09/25 03:34:58;;;;;;;18.70;3.03;;;;;;;13.16;100.00;100497.91;5035846;28;20025;-88
2023/09/25 03:37:23;;;;;;;12.07;2.60;;;;;;;13.05;100.00;100496.06;5053730;28;20036;-88
2023/09/25 03:39:48;;;;;;;15.60;2.90;;;;;;;13.00;100.00;100499.88;5053554;28;20032;-88
2023/09/25 03:42:14;;;;;;;13.15;3.38;;;;;;;13.21;100.00;100511.38;5053764;28;20025;-88
2023/09/25 03:44:39;;;;;;;24.30;3.53;;;;;;;13.13;100.00;100499.91;5053464;28;20033;-88
2023/09/25 03:47:05;;;;;;;16.63;2.78;;;;;;;13.01;100.00;100512.72;5053582;28;20033;-89
2023/09/25 03:49:30;;;;;;;15.15;3.55;;;;;;;13.07;100.00;100512.34;5051944;28;20347;-89
2023/09/25 03:51:55;;;;;;;17.55;3.35;;;;;;;13.20;100.00;100516.69;5052666;28;20509;-89
2023/09/25 03:54:21;;;;;;;15.60;4.35;;;;;;;12.99;100.00;100506.00;5053146;28;20562;-89
2023/09/25 03:56:46;;;;;;;13.13;2.42;;;;;;;13.22;100.00;100504.47;5053143;28;20017;-89
2023/09/25 03:59:11;;;;;;;10.65;2.75;;;;;;;13.04;100.00;100516.88;5052979;28;20023;-88
2023/09/25 04:01:37;;;;;;;13.48;2.83;;;;;;;12.94;100.00;100510.66;5053119;28;20028;-88
2023/09/25 04:04:03;;;;;;;20.55;4.38;;;;;;;12.85;100.00;100512.94;5052586;28;20382;-88
2023/09/25 04:06:28;;;;;;;14.43;3.28;;;;;;;12.78;100.00;100513.44;5035041;28;20032;-89
2023/09/25 04:08:53;;;;;;;20.83;3.40;;;;;;;12.74;100.00;100519.72;5052785;28;20120;-89
2023/09/25 04:11:19;;;;;;;13.00;2.95;;;;;;;12.75;100.00;100514.47;5034926;28;20108;-89
2023/09/25 04:13:44;;;;;;;9.40;2.33;;;;;;;12.83;100.00;100514.78;5052672;28;20017;-89
2023/09/25 04:16:13;;;;;;;12.65;3.00;;;;;;;12.75;100.00;100511.88;5053209;28;20086;-89
2023/09/25 04:18:39;;;;;;;12.93;3.40;;;;;;;12.84;100.00;100519.00;5052805;28;20032;-89
2023/09/25 04:21:07;;;;;;;17.15;3.15;;;;;;;12.72;100.00;100529.34;5052023;28;20442;-89
2023/09/25 04:23:33;;;;;;;12.05;2.53;;;;;;;12.63;100.00;100523.84;5052594;28;20043;-89
2023/09/25 04:26:00;;;;;;;9.93;2.63;;;;;;;12.52;100.00;100523.72;5051926;28;20131;-89
2023/09/25 04:28:29;;;;;;;19.10;3.78;;;;;;;12.50;100.00;100527.31;5052704;28;20045;-89
2023/09/25 04:30:59;;;;;;;13.68;3.00;;;;;;;12.68;100.00;100531.31;5052711;28;20498;-89
2023/09/25 04:33:26;;;;;;;8.48;2.60;;;;;;;12.50;100.00;100537.69;5052492;28;20025;-89
2023/09/25 04:35:54;;;;;;;12.70;2.35;;;;;;;12.43;100.00;100538.06;5051772;28;20409;-88
2023/09/25 04:38:20;;;;;;;17.15;3.00;;;;;;;12.45;100.00;100543.16;5052145;28;20040;-89
2023/09/25 04:40:46;;;;;;;12.15;2.80;;;;;;;12.36;100.00;100547.16;5052150;28;20029;-88
2023/09/25 04:43:12;;;;;;;9.13;2.70;;;;;;;12.31;100.00;100556.13;5050866;28;20466;-89
2023/09/25 04:45:38;;;;;;;12.27;3.80;;;;;;;12.28;100.00;100561.50;5046128;28;20033;-88
2023/09/25 04:48:03;;;;;;;10.18;2.35;;;;;;;12.20;100.00;100561.97;5052321;28;20028;-88
2023/09/25 04:50:29;;;;;;;14.80;2.42;;;;;;;12.23;100.00;100564.38;5051153;28;20627;-88
2023/09/25 04:52:55;;;;;;;14.25;2.65;;;;;;;12.26;100.00;100566.75;5051892;28;20076;-89
2023/09/25 04:55:21;;;;;;;11.82;2.80;;;;;;;12.13;100.00;100566.69;5052062;28;20025;-88
2023/09/25 04:57:47;;;;;;;21.63;4.30;;;;;;;12.22;100.00;100565.31;5051801;28;20048;-89
2023/09/25 05:00:25;;;;;;;11.57;3.38;;;;;;;12.13;100.00;100564.09;5051904;28;20021;-89
2023/09/25 05:02:52;;;;;;;12.73;3.10;;;;;;;12.20;100.00;100561.97;5051791;28;20207;-88
2023/09/25 05:05:18;;;;;;;18.67;3.55;;;;;;;12.13;100.00;100561.53;5051334;28;20029;-88
2023/09/25 05:07:46;;;;;;;15.43;2.75;;;;;;;12.17;100.00;100569.94;5051416;28;20079;-88
2023/09/25 05:10:13;;;;;;;10.82;2.42;;;;;;;12.15;100.00;100574.38;5051597;28;20032;-88
2023/09/25 05:12:39;;;;;;;13.77;3.28;;;;;;;12.12;100.00;100579.72;5051781;28;20486;-89
2023/09/25 05:15:07;;;;;;;13.07;2.88;;;;;;;12.12;100.00;100580.56;5051786;28;20028;-88
2023/09/25 05:17:38;;;;;;;15.60;3.20;;;;;;;12.10;100.00;100576.41;5051406;28;20032;-89
2023/09/25 05:20:16;;;;;;;17.90;3.35;;;;;;;12.05;100.00;100578.47;5050718;28;20494;-88
2023/09/25 05:22:44;;;;;;;13.23;2.80;;;;;;;12.23;100.00;100585.06;5051667;28;20114;-88
2023/09/25 05:25:11;;;;;;;14.20;3.53;;;;;;;12.15;100.00;100579.56;5051607;28;20122;-88
2023/09/25 05:27:38;;;;;;;20.67;3.53;;;;;;;12.29;100.00;100595.06;5051597;28;20022;-88
2023/09/25 05:30:05;;;;;;;13.20;3.42;;;;;;;12.12;100.00;100590.91;5051230;28;20025;-89
2023/09/25 05:32:32;;;;;;;15.43;3.28;;;;;;;12.12;100.00;100598.69;5051585;28;20025;-88
2023/09/25 05:34:58;;;;;;;9.35;2.45;;;;;;;12.00;100.00;100602.03;5031353;28;20033;-88
2023/09/25 05:37:24;;;;;;;15.70;3.67;;;;;;;12.04;100.00;100613.00;5031379;28;20087;-88
2023/09/25 05:39:49;;;;;;;11.93;2.55;;;;;;;11.99;100.00;100618.44;5043027;28;20053;-88
2023/09/25 05:42:15;;;;;;;18.45;4.15;;;;;;;11.97;100.00;100610.81;5033454;28;20025;-89
2023/09/25 05:44:40;;;;;;;18.75;3.05;;;;;;;11.99;100.00;100614.09;5033472;28;20031;-88
2023/09/25 05:47:05;;;;;;;13.18;2.88;;;;;;;11.95;100.00;100625.56;5051592;28;20053;-87
2023/09/25 05:49:31;;;;;;;13.15;2.80;;;;;;;11.94;100.00;100621.31;5032805;28;20025;-87
2023/09/25 05:51:57;;;;;;;18.70;4.47;;;;;;;12.14;100.00;100627.88;5033075;28;20025;-88
2023/09/25 05:54:22;;;;;;;19.63;4.03;;;;;;;12.10;100.00;100633.34;5051154;28;20527;-90
2023/09/25 05:56:48;;;;;;;29.65;3.88;;;;;;;12.16;100.00;100635.53;5051033;28;20049;-90
2023/09/25 05:59:14;;;;;;;14.98;3.22;;;;;;;12.10;100.00;100639.34;5047674;28;20140;-89
2023/09/25 06:01:40;;;;;;;14.80;2.85;;;;;;;12.02;100.00;100638.13;5043014;28;20032;-90
2023/09/25 06:04:05;;;;;;;13.32;2.70;;;;;;;12.04;100.00;100638.88;5050100;28;20021;-89
2023/09/25 06:06:32;;;;;;;14.15;3.53;;;;;;;11.94;100.00;100647.19;5051211;28;20056;-88
2023/09/25 06:08:57;;;;;;;16.63;3.35;;;;;;;12.25;100.00;100645.34;5051466;28;20043;-89
2023/09/25 06:11:23;;;;;;;16.75;4.30;;;;;;;12.12;100.00;100641.81;5051355;28;20100;-90
2023/09/25 06:13:48;;;;;;;20.60;3.55;;;;;;;12.17;100.00;100656.16;5050663;28;20116;-89
2023/09/25 06:16:14;;;;;;;18.73;3.70;;;;;;;12.14;100.00;100663.25;5051299;28;20383;-88
2023/09/25 06:18:40;;;;;;;15.20;3.30;;;;;;;12.13;100.00;100674.53;5032762;28;20067;-89
2023/09/25 06:21:07;;;;;;;16.10;3.40;;;;;;;12.07;100.00;100665.41;5051295;28;20443;-88
2023/09/25 06:23:33;;;;;;;25.30;3.45;;;;;;;12.09;100.00;100675.63;5051344;28;20087;-88
2023/09/25 06:25:58;;;;;;;15.30;2.70;;;;;;;12.17;100.00;100665.69;5051053;28;20017;-88
2023/09/25 06:28:25;;;;;;;23.27;3.60;;;;;;;12.15;100.00;100659.75;5050710;28;20029;-88
2023/09/25 06:30:50;;;;;;;14.35;3.10;;;;;;;12.17;100.00;100670.84;5051345;28;20025;-88
2023/09/25 06:33:15;;;;;;;16.02;3.38;;;;;;;12.12;100.00;100688.38;5049833;28;20036;-90
2023/09/25 06:35:42;;;;;;;15.85;2.90;;;;;;;12.20;100.00;100681.84;5050548;28;20039;-89
2023/09/25 06:38:08;;;;;;;15.77;2.97;;;;;;;12.23;100.00;100683.41;5051139;28;20032;-89
2023/09/25 06:40:34;;;;;;;17.67;3.05;;;;;;;12.34;100.00;100678.44;5051105;28;20025;-89
2023/09/25 06:42:59;;;;;;;18.15;3.10;;;;;;;12.31;100.00;100681.19;5050886;28;20025;-89
2023/09/25 06:45:24;;;;;;;15.75;3.20;;;;;;;12.39;100.00;100681.56;5050853;28;20032;-88
2023/09/25 06:47:50;;;;;;;24.30;4.25;;;;;;;12.42;100.00;100665.84;5051748;28;20024;-90
2023/09/25 06:50:16;;;;;;;16.00;2.90;;;;;;;12.46;100.00;100683.75;5053040;28;20056;-89
2023/09/25 06:52:42;;;;;;;11.70;2.38;;;;;;;12.42;100.00;100678.78;5053790;28;20055;-90
2023/09/25 06:55:07;;;;;;;14.93;3.20;;;;;;;12.45;100.00;100679.53;5054111;28;20064;-88
2023/09/25 06:57:33;;;;;;;12.82;3.30;;;;;;;12.45;100.00;100684.69;5054161;28;20024;-87
2023/09/25 06:59:58;;;;;;;21.60;3.15;;;;;;;12.49;100.00;100686.19;5054303;28;20029;-87
2023/09/25 07:02:25;;;;;;;15.80;3.10;;;;;;;12.55;100.00;100680.63;5053802;28;20170;-87
2023/09/25 07:04:50;;;;;;;16.38;3.42;;;;;;;12.59;100.00;100687.28;5053393;28;20041;-88
2023/09/25 07:07:16;;;;;;;19.85;3.58;;;;;;;12.65;100.00;100692.06;5053872;28;20091;-87
2023/09/25 07:09:42;;;;;;;21.48;4.30;;;;;;;12.73;100.00;100695.03;5053258;28;20025;-89
2023/09/25 07:12:08;;;;;;;17.40;3.38;;;;;;;12.73;100.00;100696.75;5053811;28;20025;-88
2023/09/25 07:14:33;;;;;;;23.48;4.18;;;;;;;12.80;100.00;100700.63;5053313;28;20037;-88
2023/09/25 07:16:59;;;;;;;18.58;3.50;;;;;;;12.84;100.00;100707.28;5034284;28;20467;-88
2023/09/25 07:19:24;;;;;;;18.05;3.50;;;;;;;13.07;100.00;100705.84;5033137;28;20029;-88
2023/09/25 07:21:50;;;;;;;22.50;4.50;;;;;;;13.10;100.00;100707.41;5035524;28;20040;-89
2023/09/25 07:24:15;;;;;;;20.33;4.03;;;;;;;13.12;100.00;100706.38;5053627;28;20017;-89
2023/09/25 07:26:41;;;;;;;84.13;9.65;;;;;;;13.23;100.00;100706.50;5053388;28;20082;-88
2023/09/25 07:29:06;;;;;;;26.70;4.85;;;;;;;13.40;100.00;100704.63;5035256;28;20033;-89
2023/09/25 07:31:32;;;;;;;37.95;5.10;;;;;;;13.54;100.00;100717.53;5060764;28;20028;-88
2023/09/25 07:33:58;;;;;;;16.98;3.90;;;;;;;13.59;100.00;100714.66;5059149;28;20434;-88
2023/09/25 07:36:24;;;;;;;19.02;4.00;;;;;;;13.74;100.00;100715.38;5037676;28;20029;-89
2023/09/25 07:38:50;;;;;;;23.52;4.93;;;;;;;14.73;100.00;100721.59;5036216;28;20074;-89
2023/09/25 07:41:15;;;;;;;15.77;4.30;;;;;;;16.05;100.00;100724.16;5053314;28;20017;-88
2023/09/25 07:43:41;;;;;;;18.60;3.53;;;;;;;16.33;100.00;100722.88;5061089;28;20031;-88
2023/09/25 07:46:08;;;;;;;23.20;4.32;;;;;;;16.40;100.00;100716.25;5060941;28;20548;-88
2023/09/25 07:48:37;;;;;;;18.92;3.72;;;;;;;17.84;100.00;100714.28;5056248;28;20364;-89
2023/09/25 07:51:04;;;;;;;15.55;3.38;;;;;;;19.92;99.55;100722.28;5052349;28;20056;-88
2023/09/25 07:53:30;;;;;;;23.63;5.20;;;;;;;19.63;91.43;100715.28;5053063;28;20036;-88
2023/09/25 07:55:57;;;;;;;16.63;3.67;;;;;;;21.13;84.72;100724.75;5052219;28;20025;-88
2023/09/25 07:58:22;;;;;;;15.98;3.35;;;;;;;22.20;74.33;100733.47;5033887;28;20378;-88
2023/09/25 08:00:48;;;;;;;18.42;3.65;;;;;;;22.30;72.06;100730.72;5053016;28;20033;-88
2023/09/25 08:03:21;;;;;;;14.85;3.30;;;;;;;22.46;72.43;100737.84;5052114;28;20017;-90
2023/09/25 08:05:47;;;;;;;11.80;3.25;;;;;;;23.03;67.73;100728.34;5052832;28;20082;-89
2023/09/25 08:08:12;;;;;;;18.35;4.03;;;;;;;23.17;66.77;100744.50;5052159;28;20025;-90
2023/09/25 08:10:43;;;;;;;17.92;3.10;;;;;;;24.06;61.59;100743.63;5052492;28;20035;-89
2023/09/25 08:13:09;;;;;;;15.38;3.33;;;;;;;24.07;62.33;100747.13;5034307;28;20039;-89
2023/09/25 08:15:35;;;;;;;23.65;3.45;;;;;;;24.45;61.17;100747.31;5051612;28;20037;-88
2023/09/25 08:18:01;;;;;;;19.08;3.67;;;;;;;23.49;61.12;100762.13;5052065;28;20024;-87
2023/09/25 08:20:27;;;;;;;21.17;4.55;;;;;;;24.54;59.01;100751.59;5052079;28;20386;-89
2023/09/25 08:22:53;;;;;;;19.48;4.53;;;;;;;24.64;58.87;100754.84;5052561;28;20100;-89
2023/09/25 08:25:20;;;;;;;19.35;3.60;;;;;;;25.21;58.02;100769.53;5052773;28;20029;-89
2023/09/25 08:27:45;;;;;;;18.20;3.47;;;;;;;25.39;57.69;100767.44;5052483;28;20037;-89
2023/09/25 08:30:12;;;;;;;18.13;3.38;;;;;;;25.50;55.88;100774.13;5052643;28;20025;-89
2023/09/25 08:32:37;;;;;;;17.67;3.38;;;;;;;23.74;62.31;100760.34;5051024;28;20025;-89
2023/09/25 08:35:04;;;;;;;14.02;2.75;;;;;;;25.76;55.66;100768.44;5052242;28;20029;-89
2023/09/25 08:37:29;;;;;;;15.57;4.03;;;;;;;25.73;54.49;100773.28;5034334;28;20486;-88
2023/09/25 08:39:56;;;;;;;15.93;3.60;;;;;;;25.16;57.03;100782.44;5052072;28;20056;-89
2023/09/25 08:42:23;;;;;;;12.95;3.08;;;;;;;24.44;58.74;100779.97;5052250;28;20025;-87
2023/09/25 08:44:53;;;;;;;17.25;3.70;;;;;;;23.71;61.53;100779.09;5052231;28;20028;-90
2023/09/25 08:47:19;;;;;;;16.17;3.83;;;;;;;23.28;65.06;100778.41;5051538;28;20513;-88
2023/09/25 08:49:52;;;;;;;14.60;3.03;;;;;;;23.21;65.92;100785.31;5051354;28;20041;-89
2023/09/25 08:52:20;;;;;;;13.93;4.05;;;;;;;23.47;64.56;100801.00;5051934;28;20120;-87
2023/09/25 08:54:46;;;;;;;17.55;4.10;;;;;;;23.87;60.70;100796.72;5033559;28;20479;-88
2023/09/25 08:57:12;;;;;;;14.70;3.42;;;;;;;22.60;64.47;100806.47;5051692;28;20086;-88
2023/09/25 08:59:39;;;;;;;11.07;2.50;;;;;;;23.15;63.34;100807.03;5051760;28;20033;-88
2023/09/25 09:02:05;;;;;;;24.48;3.95;;;;;;;23.05;64.44;100802.72;5051814;28;20032;-87
2023/09/25 09:04:31;;;;;;;10.32;3.33;;;;;;;23.40;63.85;100805.25;5051661;28;20104;-87
2023/09/25 09:06:56;;;;;;;14.63;3.75;;;;;;;22.95;65.13;100802.03;5050760;28;20112;-88
2023/09/25 09:09:21;;;;;;;15.07;4.60;;;;;;;23.33;64.48;100794.53;5033592;28;20104;-88
2023/09/25 09:11:51;;;;;;;22.25;3.50;;;;;;;22.49;66.40;100796.25;5051365;28;20029;-88
2023/09/25 09:14:38;;;;;;;16.60;3.35;;;;;;;21.97;68.68;100809.34;5052037;28;20079;-87
2023/09/25 09:17:06;;;;;;;14.07;3.03;;;;;;;22.05;69.39;100805.97;5051072;28;20060;-87
2023/09/25 09:19:44;;;;;;;19.15;3.67;;;;;;;22.34;69.28;100805.72;5051441;28;20056;-88
2023/09/25 09:22:10;;;;;;;12.98;3.10;;;;;;;22.60;69.16;100798.56;5033228;28;20442;-88
2023/09/25 09:24:40;;;;;;;15.82;3.05;;;;;;;22.72;68.07;100798.31;5033348;28;20017;-89
2023/09/25 09:27:09;;;;;;;19.15;3.78;;;;;;;21.69;68.25;100809.47;5033432;28;20138;-87
2023/09/25 09:29:39;;;;;;;17.88;3.88;;;;;;;21.29;73.02;100829.09;5051492;28;20025;-88
2023/09/25 09:32:06;;;;;;;19.42;3.85;;;;;;;21.11;73.24;100826.44;5050725;28;20028;-88
2023/09/25 09:34:32;;;;;;;19.77;3.80;;;;;;;21.22;73.07;100825.41;5051567;28;20098;-87
2023/09/25 09:36:58;;;;;;;13.60;2.97;;;;;;;21.57;75.26;100831.69;5050525;28;20052;-88
2023/09/25 09:39:26;;;;;;;19.08;3.90;;;;;;;21.83;74.42;100831.78;5051517;28;20029;-88
2023/09/25 09:41:53;;;;;;;20.42;4.13;;;;;;;21.49;74.10;100834.25;5051407;28;20475;-90
2023/09/25 09:44:19;;;;;;;16.55;3.63;;;;;;;21.19;71.74;100838.84;5050355;28;20082;-89
2023/09/25 09:46:46;;;;;;;14.13;3.47;;;;;;;21.03;73.24;100838.66;5050033;28;20387;-90
2023/09/25 09:49:15;;;;;;;15.18;4.15;;;;;;;21.23;69.09;100842.81;5051243;28;20399;-90
2023/09/25 09:51:43;;;;;;;21.35;3.60;;;;;;;21.43;72.84;100840.91;5050992;28;20028;-89
2023/09/25 09:54:13;;;;;;;11.15;3.33;;;;;;;21.69;72.52;100834.94;5050941;28;20383;-89
2023/09/25 09:56:39;;;;;;;11.75;2.33;;;;;;;21.50;73.71;100835.91;5049536;28;20438;-88
2023/09/25 09:59:06;;;;;;;12.55;3.30;;;;;;;20.92;71.55;100845.75;5051337;28;20029;-89
2023/09/25 10:01:33;;;;;;;26.75;4.28;;;;;;;21.07;74.27;100845.25;5050419;28;20078;-90
2023/09/25 10:04:01;;;;;;;16.65;2.95;;;;;;;20.66;73.36;100842.97;5050886;28;20431;-89
2023/09/25 10:06:28;;;;;;;14.48;3.30;;;;;;;21.13;71.53;100849.94;5050566;28;20021;-91
2023/09/25 10:09:08;;;;;;;15.27;2.90;;;;;;;20.94;72.66;100846.41;5051104;28;20506;-91
2023/09/25 10:11:34;;;;;;;18.02;3.75;;;;;;;20.92;73.29;100853.63;5051339;28;20033;-91
2023/09/25 10:14:03;;;;;;;19.40;4.05;;;;;;;20.48;72.36;100853.34;5051168;28;20444;-93
2023/09/25 10:16:30;;;;;;;17.25;4.30;;;;;;;20.75;71.45;100846.50;5052716;28;20106;-91
2023/09/25 10:18:56;;;;;;;17.10;3.38;;;;;;;20.84;70.80;100850.06;5033446;28;20490;-92
2023/09/25 10:21:22;;;;;;;21.35;3.80;;;;;;;20.86;71.16;100848.94;5033274;28;20057;-90
2023/09/25 10:23:51;;;;;;;15.95;3.65;;;;;;;21.17;69.59;100856.53;5053137;28;20021;-90
2023/09/25 10:26:26;;;;;;;20.88;3.72;;;;;;;21.06;70.94;100840.97;5054938;28;20127;-91
2023/09/25 10:29:14;;;;;;;17.15;3.92;;;;;;;21.11;68.73;100846.63;5054580;28;20033;-90
2023/09/25 10:31:45;;;;;;;16.33;3.35;;;;;;;21.16;68.17;100839.13;5036769;28;20025;-90
2023/09/25 10:34:11;;;;;;;;;;;;;;;21.40;70.14;100846.47;5054843;28;20400;-90
2023/09/25 10:36:39;;;;;;;15.93;5.03;;;;;;;21.21;68.81;100852.63;5054320;28;19916;-90
2023/09/25 10:39:09;;;;;;;16.55;4.13;;;;;;;21.59;70.34;100840.25;5054711;28;20484;-90
2023/09/25 10:41:36;;;;;;;13.40;3.67;;;;;;;21.44;70.22;100857.53;5058234;28;20095;-89
2023/09/25 10:44:02;;;;;;;20.45;4.22;;;;;;;20.99;68.41;100858.28;5054267;28;20029;-89
2023/09/25 10:46:27;;;;;;;16.02;3.50;;;;;;;21.07;68.89;100847.88;5053542;28;20029;-88
2023/09/25 10:48:55;;;;;;;21.60;4.00;;;;;;;21.60;67.44;100855.03;5053874;28;20036;-89
2023/09/25 10:51:21;;;;;;;15.00;3.50;;;;;;;21.94;66.14;100854.34;5054618;28;20040;-91
2023/09/25 10:53:47;;;;;;;19.13;3.63;;;;;;;21.82;68.09;100864.25;5054774;28;20021;-90
2023/09/25 10:56:12;;;;;;;13.30;4.05;;;;;;;21.68;63.78;100865.63;5053986;28;20035;-90
2023/09/25 10:58:38;;;;;;;15.68;3.78;;;;;;;21.79;65.56;100872.44;5054362;28;20055;-89
2023/09/25 11:01:04;;;;;;;17.90;3.40;;;;;;;21.74;66.96;100870.28;5035196;28;20398;-90
2023/09/25 11:03:31;;;;;;;16.38;4.07;;;;;;;21.97;65.95;100859.28;5054332;28;20025;-89
2023/09/25 11:05:58;;;;;;;19.10;3.58;;;;;;;21.73;62.76;100859.94;5053879;28;20025;-89
2023/09/25 11:08:25;;;;;;;14.13;3.28;;;;;;;22.14;65.90;100866.34;5054189;28;20095;-90
2023/09/25 11:10:50;;;;;;;16.25;3.13;;;;;;;21.71;64.29;100869.75;5053663;28;20033;-92